createdAt,value
2023-11-23T00:01:40.624Z,5.03
2023-11-23T00:04:07.428Z,4.60
2023-11-23T00:06:34.163Z,5.60
2023-11-23T00:09:00.901Z,6.60
2023-11-23T00:11:27.586Z,5.10
2023-11-23T00:13:54.290Z,5.23
2023-11-23T00:16:21.044Z,4.90
2023-11-23T00:18:47.851Z,5.17
2023-11-23T00:21:14.619Z,5.07
2023-11-23T00:23:42.293Z,4.93
2023-11-23T00:26:09.540Z,6.20
2023-11-23T00:28:37.750Z,4.90
2023-11-23T00:31:05.080Z,5.67
2023-11-23T00:33:31.921Z,4.70
2023-11-23T00:35:58.710Z,4.93
2023-11-23T00:38:25.460Z,6.20
2023-11-23T00:40:52.243Z,5.47
2023-11-23T00:43:18.952Z,5.83
2023-11-23T00:45:46.024Z,6.10
2023-11-23T00:48:13.534Z,5.70
2023-11-23T00:50:40.946Z,4.80
2023-11-23T00:53:07.669Z,7.07
2023-11-23T00:55:34.312Z,7.13
2023-11-23T00:58:02.875Z,7.50
2023-11-23T01:00:31.042Z,7.03
2023-11-23T01:02:57.839Z,7.17
2023-11-23T01:05:24.584Z,8.30
2023-11-23T01:07:51.263Z,8.33
2023-11-23T01:10:17.921Z,8.27
2023-11-23T01:12:44.591Z,9.03
2023-11-23T01:15:13.216Z,7.67
2023-11-23T01:17:40.518Z,8.33
2023-11-23T01:20:08.802Z,8.57
2023-11-23T01:22:37.309Z,8.50
2023-11-23T01:25:09.369Z,9.30
2023-11-23T01:27:37.198Z,7.60
2023-11-23T01:30:04.970Z,8.30
2023-11-23T01:32:33.645Z,8.83
2023-11-23T01:35:00.416Z,9.50
2023-11-23T01:37:27.278Z,8.80
2023-11-23T01:39:54.968Z,7.83
2023-11-23T01:42:21.706Z,8.37
2023-11-23T01:44:48.561Z,8.30
2023-11-23T01:47:16.229Z,9.10
2023-11-23T01:49:46.409Z,9.17
2023-11-23T01:52:13.451Z,9.10
2023-11-23T01:54:40.417Z,8.90
2023-11-23T01:57:09.267Z,8.30
2023-11-23T01:59:37.091Z,8.73
2023-11-23T02:02:06.671Z,9.50
2023-11-23T02:04:33.576Z,10.33
2023-11-23T02:07:01.050Z,9.23
2023-11-23T02:09:29.812Z,10.37
2023-11-23T02:11:57.399Z,9.20
2023-11-23T02:14:25.071Z,11.70
2023-11-23T02:16:51.809Z,11.00
2023-11-23T02:19:18.549Z,10.70
2023-11-23T02:21:45.394Z,11.63
2023-11-23T02:24:12.725Z,10.30
2023-11-23T02:26:40.304Z,12.27
2023-11-23T02:29:07.050Z,11.23
2023-11-23T02:31:34.151Z,10.77
2023-11-23T02:34:01.567Z,10.70
2023-11-23T02:36:28.250Z,10.67
2023-11-23T02:38:54.984Z,12.53
2023-11-23T02:41:21.692Z,10.97
2023-11-23T02:43:49.899Z,10.67
2023-11-23T02:46:16.695Z,11.50
2023-11-23T02:48:43.467Z,11.40
2023-11-23T02:51:10.325Z,10.80
2023-11-23T02:53:44.723Z,10.27
2023-11-23T02:56:12.107Z,12.60
2023-11-23T02:58:42.936Z,11.50
2023-11-23T03:01:10.352Z,12.47
2023-11-23T03:03:37.198Z,12.03
2023-11-23T03:06:04.086Z,12.87
2023-11-23T03:08:30.795Z,12.07
2023-11-23T03:10:57.518Z,12.00
2023-11-23T03:13:25.418Z,12.87
2023-11-23T03:15:52.237Z,12.43
2023-11-23T03:18:19.244Z,12.80
2023-11-23T03:20:47.148Z,12.00
2023-11-23T03:23:14.240Z,11.60
2023-11-23T03:25:41.342Z,11.93
2023-11-23T03:28:08.485Z,12.77
2023-11-23T03:30:36.891Z,12.70
2023-11-23T03:33:04.068Z,12.30
2023-11-23T03:35:30.811Z,13.87
2023-11-23T03:37:57.559Z,14.70
2023-11-23T03:40:24.217Z,15.00
2023-11-23T03:42:50.895Z,13.90
2023-11-23T03:45:17.584Z,12.73
2023-11-23T03:47:44.459Z,12.63
2023-11-23T03:50:11.419Z,14.03
2023-11-23T03:52:39.536Z,13.97
2023-11-23T03:55:06.751Z,13.50
2023-11-23T03:57:33.404Z,13.07
2023-11-23T04:00:00.416Z,13.60
2023-11-23T04:02:27.573Z,14.50
2023-11-23T04:04:54.753Z,14.13
2023-11-23T04:07:21.406Z,14.40
2023-11-23T04:09:48.167Z,15.40
2023-11-23T04:12:15.474Z,14.30
2023-11-23T04:14:42.259Z,15.77
2023-11-23T04:17:08.915Z,15.17
2023-11-23T04:19:35.568Z,15.80
2023-11-23T04:22:02.972Z,16.00
2023-11-23T04:24:29.641Z,18.10
2023-11-23T04:26:56.294Z,20.80
2023-11-23T04:29:22.954Z,17.90
2023-11-23T04:31:49.591Z,22.00
2023-11-23T04:34:16.366Z,21.07
2023-11-23T04:36:43.116Z,24.30
2023-11-23T04:39:09.975Z,24.97
2023-11-23T04:41:37.847Z,25.27
2023-11-23T04:44:04.698Z,25.20
2023-11-23T04:46:31.555Z,26.03
2023-11-23T04:48:58.311Z,24.00
2023-11-23T04:51:25.135Z,25.87
2023-11-23T04:53:51.844Z,26.23
2023-11-23T04:56:19.406Z,25.30
2023-11-23T04:58:46.322Z,27.30
2023-11-23T05:01:13.037Z,26.33
2023-11-23T05:03:39.842Z,25.70
2023-11-23T05:06:08.274Z,25.77
2023-11-23T05:08:35.948Z,27.07
2023-11-23T05:11:02.758Z,27.80
2023-11-23T05:13:29.480Z,28.93
2023-11-23T05:15:56.450Z,25.30
2023-11-23T05:18:23.482Z,25.00
2023-11-23T05:20:50.336Z,26.10
2023-11-23T05:23:17.100Z,26.63
2023-11-23T05:25:43.830Z,26.30
2023-11-23T05:28:10.523Z,24.93
2023-11-23T05:30:37.290Z,28.73
2023-11-23T05:33:05.606Z,26.57
2023-11-23T05:35:32.379Z,28.60
2023-11-23T05:37:59.211Z,29.63
2023-11-23T05:40:25.982Z,26.50
2023-11-23T05:42:58.189Z,27.70
2023-11-23T05:45:31.843Z,28.33
2023-11-23T05:47:58.670Z,28.20
2023-11-23T05:50:25.385Z,29.30
2023-11-23T05:52:52.089Z,28.90
2023-11-23T05:55:18.745Z,30.43
2023-11-23T05:57:45.392Z,29.80
2023-11-23T06:00:13.254Z,30.73
2023-11-23T06:02:42.228Z,29.20
2023-11-23T06:05:09.911Z,33.10
2023-11-23T06:07:36.695Z,31.87
2023-11-23T06:10:06.002Z,32.47
2023-11-23T06:12:32.862Z,31.40
2023-11-23T06:14:59.901Z,31.13
2023-11-23T06:17:26.760Z,31.67
2023-11-23T06:19:53.584Z,33.37
2023-11-23T06:22:20.425Z,34.60
2023-11-23T06:24:47.145Z,30.70
2023-11-23T06:27:14.127Z,31.50
2023-11-23T06:29:40.796Z,34.07
2023-11-23T06:32:07.850Z,33.50
2023-11-23T06:34:37.722Z,34.67
2023-11-23T06:37:05.809Z,34.97
2023-11-23T06:39:36.968Z,33.03
2023-11-23T06:42:03.938Z,34.70
2023-11-23T06:44:30.664Z,36.87
2023-11-23T06:46:57.304Z,32.47
2023-11-23T06:49:23.961Z,35.90
2023-11-23T06:51:50.606Z,33.73
2023-11-23T06:54:17.283Z,35.10
2023-11-23T06:56:43.954Z,33.30
2023-11-23T06:59:10.659Z,37.67
2023-11-23T07:01:37.459Z,39.60
2023-11-23T07:04:05.196Z,38.37
2023-11-23T07:06:32.027Z,36.87
2023-11-23T07:09:00.094Z,37.37
2023-11-23T07:11:26.782Z,36.80
2023-11-23T07:13:53.429Z,36.30
2023-11-23T07:16:21.169Z,35.60
2023-11-23T07:18:47.980Z,34.93
2023-11-23T07:21:15.523Z,35.17
2023-11-23T07:23:42.590Z,35.07
2023-11-23T07:26:10.198Z,34.30
2023-11-23T07:28:36.877Z,37.93
2023-11-23T07:31:03.707Z,40.20
2023-11-23T07:33:35.166Z,39.20
2023-11-23T07:36:05.904Z,39.00
2023-11-23T07:38:35.638Z,37.27
2023-11-23T07:41:02.482Z,38.80
2023-11-23T07:43:31.684Z,37.73
2023-11-23T07:45:59.064Z,36.60
2023-11-23T07:48:25.836Z,34.73
2023-11-23T07:50:53.188Z,32.77
2023-11-23T07:53:22.947Z,32.10
2023-11-23T07:55:50.489Z,32.67
2023-11-23T07:58:17.355Z,30.87
2023-11-23T08:00:44.300Z,30.43
2023-11-23T08:03:11.405Z,31.67
2023-11-23T08:05:38.396Z,30.77
2023-11-23T08:08:05.387Z,30.77
2023-11-23T08:10:32.097Z,32.40
2023-11-23T08:12:59.573Z,28.70
2023-11-23T08:15:26.686Z,29.80
2023-11-23T08:17:58.949Z,29.93
2023-11-23T08:20:33.284Z,32.00
2023-11-23T08:23:00.393Z,32.17
2023-11-23T08:25:27.961Z,30.03
2023-11-23T08:27:54.623Z,31.87
2023-11-23T08:30:23.235Z,30.60
2023-11-23T08:32:50.237Z,28.13
2023-11-23T08:35:17.493Z,32.60
2023-11-23T08:37:44.245Z,31.70
2023-11-23T08:40:12.720Z,30.20
2023-11-23T08:42:40.222Z,29.70
2023-11-23T08:45:07.496Z,30.10
2023-11-23T08:47:34.424Z,28.67
2023-11-23T08:50:01.856Z,32.00
2023-11-23T08:52:29.039Z,28.97
2023-11-23T08:54:55.920Z,31.40
2023-11-23T08:57:22.691Z,27.93
2023-11-23T08:59:49.415Z,27.47
2023-11-23T09:02:20.480Z,28.50
2023-11-23T09:04:49.010Z,29.63
2023-11-23T09:07:16.249Z,30.83
2023-11-23T09:09:43.204Z,28.70
2023-11-23T09:12:09.950Z,28.93
2023-11-23T09:14:46.598Z,28.90
2023-11-23T09:17:16.907Z,30.73
2023-11-23T09:19:43.716Z,36.57
2023-11-23T09:22:11.320Z,33.13
2023-11-23T09:24:39.035Z,28.77
2023-11-23T09:27:07.426Z,30.20
2023-11-23T09:29:34.181Z,88.60
2023-11-23T09:32:00.982Z,28.10
2023-11-23T09:34:27.673Z,29.07
2023-11-23T09:36:54.329Z,31.20
2023-11-23T09:39:22.772Z,31.00
2023-11-23T09:41:51.077Z,29.00
2023-11-23T09:44:17.928Z,30.20
2023-11-23T09:46:46.485Z,29.60
2023-11-23T09:49:13.994Z,42.17
2023-11-23T09:51:42.794Z,30.37
2023-11-23T09:54:10.738Z,30.60
2023-11-23T09:56:37.464Z,30.97
2023-11-23T09:59:05.105Z,32.30
2023-11-23T10:01:34.422Z,29.00
2023-11-23T10:04:01.475Z,32.17
2023-11-23T10:06:28.507Z,30.43
2023-11-23T10:08:55.263Z,26.67
2023-11-23T10:11:22.411Z,31.00
2023-11-23T10:13:49.502Z,27.30
2023-11-23T10:16:17.008Z,29.43
2023-11-23T10:18:44.016Z,27.00
2023-11-23T10:21:12.798Z,28.23
2023-11-23T10:23:44.619Z,29.20
2023-11-23T10:26:11.702Z,28.27
2023-11-23T10:28:39.459Z,28.53
2023-11-23T10:31:06.836Z,27.40
2023-11-23T10:33:36.537Z,25.97
2023-11-23T10:36:05.876Z,26.00
2023-11-23T10:38:44.360Z,25.60
2023-11-23T10:41:12.714Z,27.23
2023-11-23T10:43:39.855Z,26.30
2023-11-23T10:46:10.561Z,26.60
2023-11-23T10:48:38.543Z,24.63
2023-11-23T10:51:07.124Z,24.23
2023-11-23T10:53:34.874Z,23.47
2023-11-23T10:56:25.838Z,24.47
2023-11-23T10:58:55.841Z,24.77
2023-11-23T11:01:26.851Z,23.23
2023-11-23T11:03:54.099Z,24.40
2023-11-23T11:06:24.017Z,23.27
2023-11-23T11:08:51.532Z,23.83
2023-11-23T11:11:22.088Z,21.83
2023-11-23T11:13:49.146Z,25.07
2023-11-23T11:16:19.121Z,21.93
2023-11-23T11:18:53.459Z,25.23
2023-11-23T11:21:27.119Z,23.33
2023-11-23T11:23:54.602Z,23.17
2023-11-23T11:26:27.023Z,22.23
2023-11-23T11:29:04.107Z,22.47
2023-11-23T11:31:36.748Z,23.60
2023-11-23T11:34:13.660Z,22.23
2023-11-23T11:36:40.524Z,20.73
2023-11-23T11:39:07.780Z,20.10
2023-11-23T11:41:38.696Z,20.83
2023-11-23T11:44:06.467Z,20.57
2023-11-23T11:46:36.491Z,20.43
2023-11-23T11:49:03.410Z,21.27
2023-11-23T11:51:32.852Z,21.67
2023-11-23T11:54:02.697Z,20.60
2023-11-23T11:56:29.706Z,20.97
2023-11-23T11:58:56.990Z,20.07
2023-11-23T12:01:23.665Z,19.17
2023-11-23T12:03:50.900Z,17.77
2023-11-23T12:06:21.141Z,18.57
2023-11-23T12:08:48.128Z,17.67
2023-11-23T12:11:28.126Z,17.60
2023-11-23T12:13:57.057Z,17.47
2023-11-23T12:16:34.490Z,17.80
2023-11-23T12:19:01.321Z,16.70
2023-11-23T12:21:30.455Z,17.77
2023-11-23T12:23:58.797Z,17.53
2023-11-23T12:26:25.679Z,18.50
2023-11-23T12:28:52.360Z,17.70
2023-11-23T12:31:22.550Z,16.10
2023-11-23T12:33:49.334Z,17.87
2023-11-23T12:36:17.044Z,17.27
2023-11-23T12:38:44.460Z,17.70
2023-11-23T12:41:12.595Z,16.57
2023-11-23T12:43:40.347Z,16.47
2023-11-23T12:46:07.127Z,17.03
2023-11-23T12:48:35.096Z,15.10
2023-11-23T12:51:01.987Z,15.00
2023-11-23T12:53:30.676Z,18.20
2023-11-23T12:55:57.678Z,18.30
2023-11-23T12:58:24.463Z,19.97
2023-11-23T13:00:51.259Z,63.30
2023-11-23T13:03:18.075Z,15.67
2023-11-23T13:05:47.656Z,13.70
2023-11-23T13:08:14.672Z,14.43
2023-11-23T13:10:42.152Z,15.00
2023-11-23T13:13:09.754Z,15.53
2023-11-23T13:15:36.756Z,13.40
2023-11-23T13:18:05.311Z,15.00
2023-11-23T13:20:32.632Z,16.20
2023-11-23T13:23:04.138Z,14.87
2023-11-23T13:25:31.316Z,14.00
2023-11-23T13:27:59.194Z,11.57
2023-11-23T13:30:26.211Z,13.20
2023-11-23T13:32:53.071Z,12.60
2023-11-23T13:35:20.134Z,12.10
2023-11-23T13:37:46.832Z,12.70
2023-11-23T13:40:14.157Z,10.93
2023-11-23T13:42:43.873Z,11.97
2023-11-23T13:45:14.078Z,10.77
2023-11-23T13:47:43.685Z,10.30
2023-11-23T13:50:14.587Z,11.17
2023-11-23T13:52:44.179Z,12.43
2023-11-23T13:55:10.978Z,11.40
2023-11-23T13:57:38.129Z,9.40
2023-11-23T14:00:21.114Z,10.50
2023-11-23T14:02:50.930Z,11.50
2023-11-23T14:05:17.826Z,10.23
2023-11-23T14:07:44.511Z,10.20
2023-11-23T14:10:14.517Z,9.50
2023-11-23T14:12:44.539Z,9.90
2023-11-23T14:15:12.335Z,24.20
2023-11-23T14:17:40.488Z,9.80
2023-11-23T14:20:08.220Z,11.23
2023-11-23T14:22:36.720Z,8.83
2023-11-23T14:25:04.574Z,8.80
2023-11-23T14:27:31.325Z,9.00
2023-11-23T14:29:58.029Z,8.00
2023-11-23T14:32:24.679Z,9.33
2023-11-23T14:34:51.643Z,8.20
2023-11-23T14:37:18.496Z,9.53
2023-11-23T14:39:45.621Z,8.90
2023-11-23T14:42:12.941Z,8.50
2023-11-23T14:44:40.282Z,9.10
2023-11-23T14:47:08.064Z,7.67
2023-11-23T14:49:35.188Z,9.40
2023-11-23T14:52:01.927Z,8.50
2023-11-23T14:54:35.279Z,8.50
2023-11-23T14:57:06.556Z,9.10
2023-11-23T14:59:33.432Z,8.10
2023-11-23T15:02:00.607Z,9.10
2023-11-23T15:04:27.580Z,8.50
2023-11-23T15:06:54.297Z,10.30
2023-11-23T15:09:21.933Z,7.73
2023-11-23T15:11:49.491Z,9.00
2023-11-23T15:14:16.910Z,8.30
2023-11-23T15:16:43.581Z,8.53
2023-11-23T15:19:11.066Z,9.30
2023-11-23T15:21:37.877Z,7.97
2023-11-23T15:24:05.004Z,8.40
2023-11-23T15:26:31.800Z,7.63
2023-11-23T15:29:00.293Z,8.03
2023-11-23T15:31:27.103Z,7.80
2023-11-23T15:33:54.056Z,10.10
2023-11-23T15:36:20.749Z,8.10
2023-11-23T15:38:49.232Z,12.10
2023-11-23T15:41:18.498Z,7.77
2023-11-23T15:43:45.546Z,9.60
2023-11-23T15:46:13.211Z,7.63
2023-11-23T15:48:40.050Z,8.20
2023-11-23T15:51:06.831Z,6.87
2023-11-23T15:53:33.536Z,6.70
2023-11-23T15:56:00.226Z,7.97
2023-11-23T15:58:27.865Z,9.30
2023-11-23T16:00:54.505Z,9.27
2023-11-23T16:03:21.697Z,7.20
2023-11-23T16:05:49.397Z,9.00
2023-11-23T16:08:16.273Z,8.03
2023-11-23T16:10:43.200Z,14.83
2023-11-23T16:13:10.975Z,10.07
2023-11-23T16:15:37.756Z,12.83
2023-11-23T16:18:04.625Z,11.23
2023-11-23T16:20:31.373Z,9.87
2023-11-23T16:22:58.103Z,10.43
2023-11-23T16:25:27.111Z,15.93
2023-11-23T16:27:53.871Z,17.70
2023-11-23T16:30:20.602Z,9.83
2023-11-23T16:32:47.423Z,7.43
2023-11-23T16:35:14.166Z,19.43
2023-11-23T16:37:40.932Z,25.97
2023-11-23T16:40:11.186Z,32.10
2023-11-23T16:42:42.578Z,28.40
2023-11-23T16:45:10.450Z,10.00
2023-11-23T16:47:37.805Z,5.83
2023-11-23T16:50:04.837Z,6.53
2023-11-23T16:52:31.537Z,6.90
2023-11-23T16:54:59.083Z,9.10
2023-11-23T16:57:25.784Z,9.23
2023-11-23T16:59:52.555Z,6.70
2023-11-23T17:02:20.049Z,9.03
2023-11-23T17:04:50.408Z,7.20
2023-11-23T17:07:19.286Z,6.80
2023-11-23T17:09:49.365Z,6.83
2023-11-23T17:12:16.143Z,6.70
2023-11-23T17:14:43.008Z,6.70
2023-11-23T17:17:09.770Z,6.60
2023-11-23T17:19:37.379Z,6.30
2023-11-23T17:22:04.541Z,6.10
2023-11-23T17:24:31.324Z,6.13
2023-11-23T17:26:58.016Z,6.00
2023-11-23T17:29:24.725Z,6.00
2023-11-23T17:31:58.526Z,6.27
2023-11-23T17:34:27.146Z,7.07
2023-11-23T17:36:54.077Z,6.70
2023-11-23T17:39:23.339Z,6.50
2023-11-23T17:41:50.052Z,6.73
2023-11-23T17:44:17.001Z,7.60
2023-11-23T17:46:44.682Z,8.50
2023-11-23T17:49:14.749Z,7.00
2023-11-23T17:51:44.427Z,7.23
2023-11-23T17:54:12.499Z,7.67
2023-11-23T17:56:39.862Z,7.83
2023-11-23T17:59:25.620Z,8.77
2023-11-23T18:02:04.422Z,7.90
2023-11-23T18:04:31.961Z,7.67
2023-11-23T18:06:58.678Z,8.60
2023-11-23T18:09:25.357Z,8.93
2023-11-23T18:11:52.056Z,9.47
2023-11-23T18:14:18.707Z,10.17
2023-11-23T18:16:46.136Z,21.20
2023-11-23T18:19:13.182Z,9.80
2023-11-23T18:21:41.275Z,9.20
2023-11-23T18:24:08.024Z,10.10
2023-11-23T18:26:34.671Z,9.90
2023-11-23T18:29:01.442Z,12.53
2023-11-23T18:31:28.132Z,11.57
2023-11-23T18:33:54.856Z,11.40
2023-11-23T18:36:22.824Z,7.20
2023-11-23T18:38:49.763Z,12.43
2023-11-23T18:41:17.202Z,11.63
2023-11-23T18:43:44.008Z,11.23
2023-11-23T18:46:12.343Z,11.30
2023-11-23T18:48:40.205Z,12.00
2023-11-23T18:51:07.838Z,11.37
2023-11-23T18:53:34.526Z,14.10
2023-11-23T18:56:01.192Z,12.87
2023-11-23T18:58:27.833Z,14.00
2023-11-23T19:00:55.148Z,16.70
2023-11-23T19:03:22.615Z,14.13
2023-11-23T19:05:51.095Z,10.53
2023-11-23T19:08:17.737Z,15.07
2023-11-23T19:10:46.985Z,13.80
2023-11-23T19:13:14.430Z,18.07
2023-11-23T19:15:41.609Z,19.83
2023-11-23T19:18:11.003Z,19.90
2023-11-23T19:20:39.671Z,21.40
2023-11-23T19:23:08.141Z,22.47
2023-11-23T19:25:35.650Z,23.53
2023-11-23T19:28:02.705Z,22.10
2023-11-23T19:30:29.714Z,23.03
2023-11-23T19:32:57.182Z,22.57
2023-11-23T19:35:26.387Z,23.23
2023-11-23T19:37:53.659Z,24.07
2023-11-23T19:40:24.287Z,23.63
2023-11-23T19:42:51.765Z,20.57
2023-11-23T19:45:19.537Z,22.20
2023-11-23T19:47:46.618Z,24.53
2023-11-23T19:50:13.879Z,21.47
2023-11-23T19:52:44.548Z,26.27
2023-11-23T19:55:12.691Z,23.80
2023-11-23T19:57:40.137Z,35.83
2023-11-23T20:00:07.914Z,30.43
2023-11-23T20:02:35.616Z,26.37
2023-11-23T20:05:04.224Z,26.17
2023-11-23T20:07:31.113Z,26.13
2023-11-23T20:10:00.865Z,29.27
2023-11-23T20:12:28.598Z,28.67
2023-11-23T20:14:55.380Z,23.17
2023-11-23T20:17:22.673Z,22.20
2023-11-23T20:19:49.881Z,24.00
2023-11-23T20:22:17.251Z,23.03
2023-11-23T20:24:44.336Z,22.43
2023-11-23T20:27:12.391Z,25.30
2023-11-23T20:29:39.129Z,24.20
2023-11-23T20:32:07.063Z,23.17
2023-11-23T20:34:33.948Z,23.23
2023-11-23T20:37:00.843Z,22.43
2023-11-23T20:39:31.654Z,21.50
2023-11-23T20:41:59.006Z,20.73
2023-11-23T20:44:25.786Z,22.77
2023-11-23T20:46:52.787Z,25.33
2023-11-23T20:49:19.929Z,26.67
2023-11-23T20:51:46.802Z,24.83
2023-11-23T20:54:13.552Z,24.63
2023-11-23T20:56:40.564Z,25.83
2023-11-23T20:59:07.622Z,24.50
2023-11-23T21:01:34.675Z,23.93
2023-11-23T21:04:01.959Z,26.10
2023-11-23T21:06:30.283Z,25.80
2023-11-23T21:08:57.339Z,25.20
2023-11-23T21:11:24.336Z,27.27
2023-11-23T21:13:51.051Z,28.17
2023-11-23T21:16:19.177Z,28.30
2023-11-23T21:18:45.977Z,30.10
2023-11-23T21:21:12.751Z,28.70
2023-11-23T21:23:40.044Z,26.00
2023-11-23T21:26:07.296Z,26.37
2023-11-23T21:28:35.251Z,26.53
2023-11-23T21:31:02.712Z,27.60
2023-11-23T21:33:29.712Z,28.27
2023-11-23T21:35:56.421Z,26.70
2023-11-23T21:38:23.156Z,29.40
2023-11-23T21:40:49.865Z,29.00
2023-11-23T21:43:16.579Z,27.83
2023-11-23T21:45:43.278Z,29.50
2023-11-23T21:48:10.612Z,23.50
2023-11-23T21:50:37.654Z,25.97
2023-11-23T21:53:04.676Z,28.10
2023-11-23T21:55:31.428Z,25.97
2023-11-23T21:58:00.996Z,26.50
2023-11-23T22:00:27.779Z,27.80
2023-11-23T22:02:54.562Z,25.30
2023-11-23T22:05:21.375Z,25.63
2023-11-23T22:07:48.074Z,24.90
2023-11-23T22:10:14.822Z,24.10
2023-11-23T22:12:43.904Z,23.60
2023-11-23T22:15:11.866Z,23.40
2023-11-23T22:17:38.767Z,25.50
2023-11-23T22:20:06.417Z,25.90
2023-11-23T22:22:33.440Z,24.30
2023-11-23T22:25:00.354Z,22.67
2023-11-23T22:27:29.057Z,22.40
2023-11-23T22:29:56.538Z,26.70
2023-11-23T22:32:26.405Z,24.73
2023-11-23T22:34:54.373Z,22.43
2023-11-23T22:37:21.372Z,24.93
2023-11-23T22:39:48.216Z,24.50
2023-11-23T22:42:15.990Z,21.57
2023-11-23T22:44:42.946Z,21.60
2023-11-23T22:47:09.826Z,26.40
2023-11-23T22:49:36.534Z,23.67
2023-11-23T22:52:05.164Z,24.67
2023-11-23T22:54:33.283Z,24.77
2023-11-23T22:57:00.026Z,23.93
2023-11-23T22:59:26.709Z,24.60
2023-11-23T23:01:53.536Z,23.20
2023-11-23T23:04:21.737Z,20.53
2023-11-23T23:06:48.631Z,19.20
2023-11-23T23:09:16.469Z,20.50
2023-11-23T23:11:43.268Z,20.67
2023-11-23T23:14:10.652Z,20.70
2023-11-23T23:16:37.362Z,20.80
2023-11-23T23:19:04.454Z,21.03
2023-11-23T23:21:32.572Z,18.93
2023-11-23T23:23:59.476Z,21.53
2023-11-23T23:26:26.215Z,17.07
2023-11-23T23:28:53.018Z,9.93
2023-11-23T23:31:19.733Z,6.80
2023-11-23T23:33:46.541Z,6.80
2023-11-23T23:36:13.267Z,5.33
2023-11-23T23:38:40.307Z,6.50
2023-11-23T23:41:07.880Z,5.77
2023-11-23T23:43:40.358Z,6.50
2023-11-23T23:46:07.037Z,5.30
2023-11-23T23:48:33.821Z,3.70
2023-11-23T23:51:01.120Z,2.90
2023-11-23T23:53:28.001Z,3.40
2023-11-23T23:55:57.975Z,3.40
2023-11-23T23:58:25.804Z,3.50
